Time;durP1;ratioP1;P1;durP2;ratioP2;P2;SDS_P1;SDS_P2;PMS_P1;PMS_P2;Temp;Humidity;BMP_temperature;BMP_pressure;BME280_temperature;BME280_humidity;BME280_pressure;Samples;Min_cycle;Max_cycle;Signal;HPM_P1;HPM_P2
2023/05/19 00:00:03;;;;;;;8.13;2.40;;;11.20;99.90;;;;;;5049296;28;20642;-78
2023/05/19 00:02:32;;;;;;;6.90;2.57;;;11.30;99.90;;;;;;5034697;28;20204;-78
2023/05/19 00:05:00;;;;;;;7.23;2.97;;;11.30;99.90;;;;;;5026956;28;20208;-78
2023/05/19 00:07:30;;;;;;;4.97;2.40;;;11.30;99.90;;;;;;5025238;28;20207;-78
2023/05/19 00:09:56;;;;;;;7.27;2.67;;;11.40;99.90;;;;;;5043876;28;20223;-79
2023/05/19 00:12:22;;;;;;;7.93;2.70;;;11.30;99.90;;;;;;5027114;28;20544;-78
2023/05/19 00:14:48;;;;;;;7.10;2.20;;;11.40;99.90;;;;;;5043711;28;20688;-78
2023/05/19 00:17:15;;;;;;;7.37;2.63;;;11.30;99.90;;;;;;5043125;28;20204;-78
2023/05/19 00:19:43;;;;;;;9.80;2.67;;;11.30;99.90;;;;;;5048294;28;20224;-77
2023/05/19 00:22:09;;;;;;;8.00;2.83;;;11.30;99.90;;;;;;5032932;28;20730;-78
2023/05/19 00:24:35;;;;;;;6.97;2.60;;;11.30;99.90;;;;;;5051254;28;20210;-78
2023/05/19 00:27:01;;;;;;;8.63;2.47;;;11.20;99.90;;;;;;5032410;28;20176;-76
2023/05/19 00:29:27;;;;;;;11.73;2.90;;;11.10;99.90;;;;;;5050484;28;20306;-77
2023/05/19 00:31:53;;;;;;;5.03;2.30;;;10.90;99.90;;;;;;5086267;22;20260;-74
2023/05/19 00:34:19;;;;;;;6.53;2.47;;;10.70;99.90;;;;;;5064707;28;20239;-73
2023/05/19 00:36:44;;;;;;;4.07;2.17;;;10.70;99.90;;;;;;5048548;28;20587;-74
2023/05/19 00:39:10;;;;;;;4.80;2.07;;;10.70;99.90;;;;;;5065020;28;20186;-74
2023/05/19 00:41:36;;;;;;;10.90;2.77;;;10.60;99.90;;;;;;5062998;28;20264;-73
2023/05/19 00:44:01;;;;;;;5.70;2.67;;;10.60;99.90;;;;;;5061170;28;20222;-74
2023/05/19 00:46:29;;;;;;;6.23;2.80;;;10.60;99.90;;;;;;5062767;28;20204;-74
2023/05/19 00:48:54;;;;;;;5.40;2.40;;;10.70;99.90;;;;;;5063562;28;20221;-73
2023/05/19 00:51:21;;;;;;;10.97;2.33;;;10.70;99.90;;;;;;5062447;28;20212;-73
2023/05/19 00:53:49;;;;;;;7.20;2.60;;;10.60;99.90;;;;;;5062092;28;20167;-74
2023/05/19 00:56:16;;;;;;;8.07;2.57;;;10.60;99.90;;;;;;5061795;28;20210;-73
2023/05/19 00:58:42;;;;;;;7.87;2.43;;;10.60;99.90;;;;;;5063721;28;20286;-74
2023/05/19 01:01:08;;;;;;;7.63;2.30;;;10.60;99.90;;;;;;5058574;28;20211;-74
2023/05/19 01:03:34;;;;;;;7.70;2.20;;;10.50;99.90;;;;;;5045828;28;20171;-73
2023/05/19 01:06:03;;;;;;;4.53;2.07;;;10.60;99.90;;;;;;5064175;28;20175;-74
2023/05/19 01:08:36;;;;;;;7.43;2.20;;;10.60;99.90;;;;;;5048149;28;20243;-74
2023/05/19 01:11:02;;;;;;;6.40;2.03;;;10.60;99.90;;;;;;5064718;28;20215;-74
2023/05/19 01:13:29;;;;;;;4.70;2.30;;;10.60;99.90;;;;;;5062461;28;20208;-72
2023/05/19 01:16:22;;;;;;;9.73;2.60;;;10.50;99.90;;;;;;5064678;28;20233;-73
2023/05/19 01:18:54;;;;;;;7.40;2.60;;;10.40;99.90;;;;;;5065503;28;20552;-73
2023/05/19 01:22:11;;;;;;;6.40;2.33;;;10.50;99.90;;;;;;5063313;28;20204;-73
2023/05/19 01:24:56;;;;;;;8.40;2.47;;;10.60;99.90;;;;;;5043171;28;20215;-73
2023/05/19 01:27:55;;;;;;;3.23;1.93;;;10.50;99.90;;;;;;5061013;28;20198;-73
2023/05/19 01:30:26;;;;;;;7.43;2.37;;;10.40;99.90;;;;;;5061189;28;20210;-73
2023/05/19 01:32:56;;;;;;;5.03;2.00;;;10.60;99.90;;;;;;5051376;28;20202;-73
2023/05/19 01:35:23;;;;;;;5.40;2.37;;;10.40;99.90;;;;;;5060598;28;20204;-73
2023/05/19 01:37:53;;;;;;;6.37;2.40;;;10.40;99.90;;;;;;5065663;28;20284;-74
2023/05/19 01:40:20;;;;;;;4.87;2.40;;;10.40;99.90;;;;;;5063573;28;20207;-73
2023/05/19 01:42:47;;;;;;;3.80;1.77;;;10.40;99.90;;;;;;5060610;28;20264;-74
2023/05/19 01:45:13;;;;;;;5.17;2.30;;;10.40;99.90;;;;;;5061093;28;20216;-74
2023/05/19 01:47:41;;;;;;;6.37;2.30;;;10.30;99.90;;;;;;5063771;28;20612;-74
2023/05/19 01:50:08;;;;;;;4.97;2.03;;;10.40;99.90;;;;;;5060507;28;20214;-73
2023/05/19 01:52:34;;;;;;;4.57;1.87;;;10.30;99.90;;;;;;5060296;28;20204;-73
2023/05/19 01:54:59;;;;;;;6.33;2.57;;;10.40;99.90;;;;;;5045469;28;20218;-73
2023/05/19 01:57:57;;;;;;;10.80;2.63;;;10.30;99.90;;;;;;5043668;28;20394;-73
2023/05/19 02:00:50;;;;;;;7.37;2.67;;;10.20;99.90;;;;;;5064128;28;20210;-73
2023/05/19 02:03:18;;;;;;;6.90;2.37;;;10.20;99.90;;;;;;5059563;28;20575;-73
2023/05/19 02:06:23;;;;;;;5.53;2.33;;;10.20;99.90;;;;;;5048660;28;20176;-73
2023/05/19 02:09:01;;;;;;;7.33;2.10;;;10.20;99.90;;;;;;5060416;28;20205;-73
2023/05/19 02:11:50;;;;;;;6.47;2.47;;;10.10;99.90;;;;;;5061040;28;20218;-73
2023/05/19 02:14:51;;;;;;;6.90;2.07;;;10.10;99.90;;;;;;5032165;28;20777;-74
2023/05/19 02:17:19;;;;;;;5.87;2.10;;;10.20;99.90;;;;;;4984209;28;20300;-74
2023/05/19 02:19:45;;;;;;;6.73;2.57;;;10.40;99.90;;;;;;5046374;28;20279;-73
2023/05/19 02:22:10;;;;;;;5.93;2.20;;;10.40;99.90;;;;;;5060800;28;20852;-74
2023/05/19 02:24:36;;;;;;;6.63;2.30;;;10.40;99.90;;;;;;5059251;28;20616;-74
2023/05/19 02:27:02;;;;;;;6.17;2.00;;;10.30;99.90;;;;;;5062013;28;20592;-75
2023/05/19 02:29:28;;;;;;;4.53;2.03;;;10.10;99.90;;;;;;5058677;28;20219;-74
2023/05/19 02:31:54;;;;;;;5.53;1.97;;;10.10;99.90;;;;;;5061276;28;20214;-74
2023/05/19 02:34:19;;;;;;;6.77;2.03;;;9.90;99.90;;;;;;5057788;28;20222;-75
2023/05/19 02:36:48;;;;;;;5.53;2.33;;;9.90;99.90;;;;;;5048548;28;20219;-74
2023/05/19 02:39:14;;;;;;;7.47;2.33;;;9.80;99.90;;;;;;5039700;28;20270;-74
2023/05/19 02:41:40;;;;;;;6.27;2.30;;;9.80;99.90;;;;;;5060927;28;20273;-74
2023/05/19 02:44:06;;;;;;;8.03;2.37;;;9.70;99.90;;;;;;5050477;28;20211;-74
2023/05/19 02:46:32;;;;;;;5.83;2.03;;;9.70;99.90;;;;;;5046268;28;20577;-73
2023/05/19 02:48:58;;;;;;;6.53;2.17;;;9.70;99.90;;;;;;5050447;28;20203;-74
2023/05/19 02:51:23;;;;;;;6.93;2.23;;;9.70;99.90;;;;;;5061298;28;20217;-75
2023/05/19 02:53:49;;;;;;;7.50;2.23;;;9.70;99.90;;;;;;5057644;28;20172;-74
2023/05/19 02:56:15;;;;;;;5.90;2.37;;;9.70;99.90;;;;;;5063625;28;20278;-74
2023/05/19 02:58:41;;;;;;;7.37;2.30;;;9.80;99.90;;;;;;5059002;28;20211;-74
2023/05/19 03:01:08;;;;;;;6.83;2.63;;;9.80;99.90;;;;;;5060960;28;20207;-75
2023/05/19 03:03:33;;;;;;;5.20;2.27;;;9.80;99.90;;;;;;5042089;28;20168;-74
2023/05/19 03:06:00;;;;;;;8.90;2.67;;;9.90;99.90;;;;;;5066432;28;20182;-74
2023/05/19 03:08:26;;;;;;;4.70;2.33;;;10.00;99.90;;;;;;5057800;28;20219;-74
2023/05/19 03:10:52;;;;;;;8.43;2.63;;;10.00;99.90;;;;;;5061517;28;20211;-75
2023/05/19 03:13:17;;;;;;;8.73;2.47;;;9.90;99.90;;;;;;5057419;28;20322;-74
2023/05/19 03:15:43;;;;;;;7.93;2.40;;;9.90;99.90;;;;;;5060705;28;20209;-74
2023/05/19 03:18:10;;;;;;;6.50;2.10;;;10.00;99.90;;;;;;5041434;28;20554;-75
2023/05/19 03:20:37;;;;;;;6.27;2.00;;;9.90;99.90;;;;;;5060406;28;20653;-75
2023/05/19 03:23:02;;;;;;;8.13;2.77;;;9.90;99.90;;;;;;5059757;28;20589;-75
2023/05/19 03:25:28;;;;;;;7.23;2.27;;;10.00;99.90;;;;;;5059260;28;20214;-75
2023/05/19 03:27:54;;;;;;;4.13;2.50;;;10.00;99.90;;;;;;5058061;28;20211;-75
2023/05/19 03:30:20;;;;;;;3.43;1.80;;;9.90;99.90;;;;;;5059426;28;20219;-74
2023/05/19 03:32:45;;;;;;;3.57;2.10;;;9.90;99.90;;;;;;5058493;28;20175;-74
2023/05/19 03:35:11;;;;;;;7.90;2.37;;;9.90;99.90;;;;;;5061066;28;20307;-75
2023/05/19 03:37:37;;;;;;;5.90;2.33;;;10.00;99.90;;;;;;5057685;28;20604;-74
2023/05/19 03:40:04;;;;;;;4.90;2.13;;;10.00;99.90;;;;;;5062175;28;20253;-74
2023/05/19 03:42:30;;;;;;;6.30;2.00;;;10.10;99.90;;;;;;5059944;28;20179;-75
2023/05/19 03:44:55;;;;;;;8.43;3.00;;;10.20;99.90;;;;;;5043200;28;20421;-74
2023/05/19 03:47:21;;;;;;;6.13;2.00;;;10.20;99.90;;;;;;5058092;28;20249;-74
2023/05/19 03:49:47;;;;;;;4.43;2.00;;;10.40;99.90;;;;;;5046179;28;20262;-74
2023/05/19 03:52:12;;;;;;;6.40;2.53;;;10.40;99.90;;;;;;5058442;28;20211;-75
2023/05/19 03:54:38;;;;;;;7.00;2.37;;;10.40;99.90;;;;;;5059413;28;20208;-74
2023/05/19 03:57:04;;;;;;;7.23;2.43;;;10.60;99.90;;;;;;5061170;28;20282;-75
2023/05/19 03:59:30;;;;;;;7.68;2.60;;;10.60;99.90;;;;;;5039406;28;20404;-74
2023/05/19 04:01:56;;;;;;;6.20;2.43;;;10.70;99.90;;;;;;5041887;28;20297;-75
2023/05/19 04:04:22;;;;;;;8.03;2.50;;;11.00;99.90;;;;;;5057815;28;20251;-74
2023/05/19 04:06:48;;;;;;;3.17;2.07;;;11.40;99.90;;;;;;5064176;28;20257;-75
2023/05/19 04:09:14;;;;;;;4.50;2.30;;;11.60;99.90;;;;;;5061562;28;20206;-75
2023/05/19 04:11:41;;;;;;;5.07;2.03;;;11.90;99.90;;;;;;5050099;28;20210;-74
2023/05/19 04:14:07;;;;;;;6.27;2.73;;;12.10;99.90;;;;;;5064582;28;20693;-75
2023/05/19 04:16:33;;;;;;;4.17;2.10;;;12.30;99.90;;;;;;5061037;28;20313;-75
2023/05/19 04:18:59;;;;;;;2.20;1.80;;;12.60;99.90;;;;;;5046223;28;20207;-75
2023/05/19 04:21:25;;;;;;;8.55;2.70;;;12.90;99.90;;;;;;5062826;28;20211;-74
2023/05/19 04:23:51;;;;;;;3.25;1.88;;;13.00;99.90;;;;;;5064108;28;20225;-75
2023/05/19 04:26:18;;;;;;;7.22;2.40;;;13.20;99.90;;;;;;5063870;28;20217;-74
2023/05/19 04:28:44;;;;;;;5.82;2.45;;;13.20;99.90;;;;;;5064574;28;20315;-75
2023/05/19 04:31:13;;;;;;;4.22;2.22;;;13.20;99.90;;;;;;5062396;28;20763;-75
2023/05/19 04:33:39;;;;;;;7.07;2.38;;;13.20;99.90;;;;;;5061324;28;20628;-75
2023/05/19 04:36:09;;;;;;;5.60;2.17;;;12.90;99.90;;;;;;5063220;28;20183;-75
2023/05/19 04:38:41;;;;;;;6.10;1.98;;;12.90;99.90;;;;;;5052002;28;20207;-74
2023/05/19 04:41:09;;;;;;;5.43;2.45;;;13.10;99.90;;;;;;5062660;28;20739;-75
2023/05/19 04:43:35;;;;;;;3.65;1.98;;;13.30;99.90;;;;;;5043588;28;20215;-74
2023/05/19 04:46:04;;;;;;;5.90;2.20;;;13.60;99.90;;;;;;5044846;28;20231;-75
2023/05/19 04:48:32;;;;;;;5.60;2.70;;;13.60;99.90;;;;;;5060132;28;20191;-73
2023/05/19 04:51:00;;;;;;;5.00;2.50;;;13.80;99.90;;;;;;5050747;28;20242;-75
2023/05/19 04:53:29;;;;;;;6.80;2.90;;;13.60;99.90;;;;;;5069728;28;20290;-75
2023/05/19 04:55:57;;;;;;;4.65;2.53;;;13.90;99.90;;;;;;5070542;28;20203;-75
2023/05/19 04:58:26;;;;;;;3.88;2.22;;;14.10;99.90;;;;;;5068618;28;20260;-74
2023/05/19 05:00:54;;;;;;;4.88;2.25;;;14.60;99.90;;;;;;5050179;28;20204;-75
2023/05/19 05:03:21;;;;;;;5.80;2.13;;;14.70;99.90;;;;;;5066457;28;20555;-75
2023/05/19 05:05:47;;;;;;;6.72;2.45;;;14.70;99.90;;;;;;5066552;28;20179;-73
2023/05/19 05:08:15;;;;;;;5.55;2.67;;;14.70;99.90;;;;;;5047800;28;20199;-73
2023/05/19 05:10:40;;;;;;;5.05;2.92;;;14.60;99.90;;;;;;5066601;28;20228;-74
2023/05/19 05:13:07;;;;;;;8.27;2.40;;;14.40;99.90;;;;;;5046785;28;20637;-75
2023/05/19 05:15:34;;;;;;;4.90;2.38;;;14.40;99.90;;;;;;5063891;28;20180;-74
2023/05/19 05:18:00;;;;;;;3.92;2.40;;;14.70;99.90;;;;;;5065134;28;20171;-76
2023/05/19 05:20:26;;;;;;;6.45;2.40;;;14.60;99.90;;;;;;5043148;28;20216;-74
2023/05/19 05:22:52;;;;;;;9.43;2.60;;;14.60;99.90;;;;;;5063323;28;20203;-75
2023/05/19 05:25:18;;;;;;;6.30;2.47;;;14.40;99.90;;;;;;5042133;28;20208;-75
2023/05/19 05:27:44;;;;;;;4.60;3.05;;;14.60;99.90;;;;;;5071367;28;20206;-75
2023/05/19 05:30:10;;;;;;;3.85;2.53;;;14.80;99.90;;;;;;5042033;28;20297;-75
2023/05/19 05:32:36;;;;;;;5.65;2.75;;;15.00;99.90;;;;;;5048102;28;20235;-75
2023/05/19 05:35:02;;;;;;;5.85;2.58;;;15.40;99.90;;;;;;5069401;28;20207;-75
2023/05/19 05:37:27;;;;;;;5.20;2.38;;;15.70;99.90;;;;;;5067542;28;20658;-75
2023/05/19 05:39:53;;;;;;;6.28;2.20;;;15.40;99.90;;;;;;5050442;28;20588;-75
2023/05/19 05:42:19;;;;;;;6.85;2.15;;;14.80;99.90;;;;;;5048006;28;20595;-75
2023/05/19 05:44:44;;;;;;;5.60;2.70;;;14.30;99.90;;;;;;5062851;28;20171;-75
2023/05/19 05:47:11;;;;;;;11.57;2.90;;;14.20;99.90;;;;;;5048008;28;20250;-75
2023/05/19 05:49:37;;;;;;;5.40;2.80;;;14.00;99.90;;;;;;5052345;28;20236;-75
2023/05/19 05:52:04;;;;;;;6.55;2.67;;;14.00;99.90;;;;;;5067129;28;20206;-75
2023/05/19 05:54:30;;;;;;;5.90;2.78;;;14.00;99.90;;;;;;5062311;28;20180;-75
2023/05/19 05:56:56;;;;;;;10.63;3.53;;;14.10;99.90;;;;;;5046947;28;20175;-75
2023/05/19 05:59:21;;;;;;;3.90;2.30;;;14.60;99.90;;;;;;5042387;28;20211;-75
2023/05/19 06:01:47;;;;;;;7.38;2.40;;;15.10;99.90;;;;;;5062751;28;20207;-74
2023/05/19 06:04:13;;;;;;;7.15;2.50;;;15.60;99.90;;;;;;5041309;28;20290;-75
2023/05/19 06:06:38;;;;;;;7.57;2.33;;;16.20;99.90;;;;;;5068957;28;20218;-73
2023/05/19 06:09:04;;;;;;;7.18;2.97;;;16.10;99.90;;;;;;5070418;28;20183;-72
2023/05/19 06:11:30;;;;;;;6.22;2.50;;;15.60;99.90;;;;;;5058080;28;20730;-73
2023/05/19 06:13:56;;;;;;;4.97;2.47;;;15.50;99.90;;;;;;5048992;28;20286;-73
2023/05/19 06:16:21;;;;;;;5.10;2.85;;;15.30;99.90;;;;;;5066846;28;20203;-72
2023/05/19 06:18:47;;;;;;;4.97;2.85;;;15.10;99.90;;;;;;5064837;28;20556;-73
2023/05/19 06:21:13;;;;;;;6.63;2.35;;;15.00;99.90;;;;;;5048767;28;20206;-73
2023/05/19 06:23:39;;;;;;;8.27;3.08;;;15.00;99.90;;;;;;5062149;28;20207;-73
2023/05/19 06:26:05;;;;;;;4.53;2.55;;;16.00;99.90;;;;;;5064274;28;20273;-73
2023/05/19 06:28:31;;;;;;;5.85;2.63;;;16.70;99.90;;;;;;5051379;28;20682;-71
2023/05/19 06:30:58;;;;;;;7.35;2.80;;;17.00;99.90;;;;;;5065060;28;20219;-72
2023/05/19 06:33:24;;;;;;;3.30;2.42;;;17.80;99.90;;;;;;5060330;28;20545;-73
2023/05/19 06:35:50;;;;;;;7.25;3.05;;;19.00;99.90;;;;;;5064112;28;20562;-72
2023/05/19 06:38:16;;;;;;;7.57;2.88;;;19.60;99.90;;;;;;5061734;28;20223;-73
2023/05/19 06:40:42;;;;;;;14.35;11.32;;;19.70;99.90;;;;;;5062398;28;20207;-73
2023/05/19 06:43:07;;;;;;;36.92;27.63;;;20.00;99.90;;;;;;5060920;28;20350;-72
2023/05/19 06:45:33;;;;;;;10.73;6.03;;;19.70;99.90;;;;;;5049895;28;20251;-72
2023/05/19 06:47:59;;;;;;;10.10;5.25;;;19.70;99.90;;;;;;5067242;28;20182;-73
2023/05/19 06:50:25;;;;;;;5.90;4.05;;;20.60;99.90;;;;;;5045064;28;20211;-73
2023/05/19 06:52:50;;;;;;;11.52;4.32;;;20.70;99.90;;;;;;5064395;28;20337;-73
2023/05/19 06:55:16;;;;;;;4.63;2.65;;;21.40;99.90;;;;;;5067342;28;20717;-73
2023/05/19 06:57:42;;;;;;;5.15;3.00;;;21.90;99.90;;;;;;5049155;28;20284;-74
2023/05/19 07:00:11;;;;;;;6.20;2.45;;;21.60;99.90;;;;;;5068614;28;20198;-73
2023/05/19 07:02:37;;;;;;;6.30;3.42;;;21.40;99.90;;;;;;5047051;28;20211;-73
2023/05/19 07:05:02;;;;;;;5.18;2.70;;;21.20;99.90;;;;;;5051838;28;20303;-73
2023/05/19 07:07:28;;;;;;;5.43;2.90;;;21.60;99.90;;;;;;5061918;28;20211;-73
2023/05/19 07:09:54;;;;;;;5.82;2.70;;;21.30;99.90;;;;;;5045872;28;20211;-73
2023/05/19 07:12:19;;;;;;;5.05;2.45;;;21.90;99.90;;;;;;5061100;28;20183;-74
2023/05/19 07:14:45;;;;;;;5.72;2.83;;;21.90;99.90;;;;;;5062855;28;20175;-73
2023/05/19 07:17:11;;;;;;;5.78;2.60;;;21.90;99.90;;;;;;5060975;28;20708;-73
2023/05/19 07:19:37;;;;;;;3.75;2.15;;;22.80;99.90;;;;;;5059711;28;20218;-74
2023/05/19 07:22:03;;;;;;;5.18;2.28;;;24.00;99.90;;;;;;5064706;28;20211;-74
2023/05/19 07:24:29;;;;;;;6.05;2.83;;;23.00;99.90;;;;;;5068545;28;20185;-73
2023/05/19 07:26:55;;;;;;;6.45;2.55;;;22.30;99.90;;;;;;5051279;28;20188;-73
2023/05/19 07:29:21;;;;;;;4.03;2.40;;;22.50;99.90;;;;;;5067991;28;20222;-73
2023/05/19 07:31:46;;;;;;;4.30;3.00;;;22.70;99.90;;;;;;5048111;28;20210;-74
2023/05/19 07:34:12;;;;;;;4.97;2.60;;;23.60;99.90;;;;;;5064078;28;20909;-74
2023/05/19 07:36:38;;;;;;;3.95;2.20;;;22.90;99.90;;;;;;5064864;28;20216;-74
2023/05/19 07:39:03;;;;;;;6.00;2.80;;;22.60;99.90;;;;;;5050433;28;20183;-73
2023/05/19 07:41:29;;;;;;;4.88;2.10;;;22.10;99.90;;;;;;5066752;28;20689;-73
2023/05/19 07:43:55;;;;;;;7.57;2.90;;;22.90;99.90;;;;;;5048283;28;20199;-73
2023/05/19 07:46:21;;;;;;;5.10;2.60;;;22.50;99.90;;;;;;5047985;28;20217;-74
2023/05/19 07:48:46;;;;;;;4.03;2.45;;;21.90;99.90;;;;;;5066674;28;20588;-73
2023/05/19 07:51:12;;;;;;;3.25;2.30;;;21.30;99.90;;;;;;5043707;28;20213;-73
2023/05/19 07:53:38;;;;;;;4.45;2.90;;;20.80;99.90;;;;;;5049098;28;20233;-73
2023/05/19 07:56:04;;;;;;;5.50;2.28;;;20.40;99.90;;;;;;5047556;28;20652;-72
2023/05/19 07:58:30;;;;;;;3.15;2.20;;;20.10;99.90;;;;;;5054633;28;20228;-73
2023/05/19 08:00:59;;;;;;;6.40;2.97;;;20.20;99.90;;;;;;5064621;28;20203;-74
2023/05/19 08:03:25;;;;;;;7.57;4.35;;;20.90;99.90;;;;;;5071781;28;20179;-73
2023/05/19 08:05:51;;;;;;;5.15;2.30;;;21.50;99.90;;;;;;5053727;28;20171;-73
2023/05/19 08:08:18;;;;;;;4.45;2.50;;;21.20;99.90;;;;;;5071275;28;20557;-74
2023/05/19 08:10:44;;;;;;;5.60;2.65;;;20.60;99.90;;;;;;5069434;28;20568;-73
2023/05/19 08:13:10;;;;;;;4.18;2.78;;;19.90;99.90;;;;;;5054079;28;20265;-73
2023/05/19 08:15:36;;;;;;;3.30;2.28;;;19.70;99.90;;;;;;5067611;28;20308;-73
2023/05/19 08:18:02;;;;;;;4.78;2.67;;;19.80;99.90;;;;;;5069547;28;20190;-73
2023/05/19 08:20:27;;;;;;;4.45;2.80;;;19.30;99.90;;;;;;5065016;28;20226;-73
2023/05/19 08:22:53;;;;;;;5.55;2.58;;;19.70;99.90;;;;;;5067192;28;20203;-72
2023/05/19 08:25:19;;;;;;;5.30;2.38;;;20.30;99.90;;;;;;5066329;28;20222;-73
2023/05/19 08:27:44;;;;;;;6.15;2.88;;;20.50;99.90;;;;;;5047497;28;20211;-73
2023/05/19 08:30:11;;;;;;;7.95;2.83;;;20.80;99.90;;;;;;5065653;28;20219;-73
2023/05/19 08:32:36;;;;;;;5.32;3.00;;;21.20;99.90;;;;;;5061835;28;20204;-73
2023/05/19 08:35:03;;;;;;;4.47;2.42;;;21.40;99.90;;;;;;5064914;28;20560;-73
2023/05/19 08:37:28;;;;;;;4.13;2.72;;;21.00;99.90;;;;;;5047003;28;20248;-73
2023/05/19 08:39:54;;;;;;;3.30;2.30;;;20.70;99.90;;;;;;5062902;28;20214;-72
2023/05/19 08:42:19;;;;;;;3.38;2.45;;;20.30;99.90;;;;;;5053032;28;20676;-73
2023/05/19 08:44:45;;;;;;;5.15;3.55;;;19.90;99.90;;;;;;5068649;28;20183;-73
2023/05/19 08:47:12;;;;;;;8.68;5.63;;;20.00;99.90;;;;;;5069552;28;20211;-73
2023/05/19 08:49:45;;;;;;;4.65;2.08;;;19.70;99.90;;;;;;5044977;28;20677;-73
2023/05/19 08:52:30;;;;;;;4.75;3.33;;;19.50;99.90;;;;;;5067951;28;20286;-72
2023/05/19 08:55:11;;;;;;;3.53;2.67;;;19.70;99.90;;;;;;5061782;28;20206;-72
2023/05/19 08:57:38;;;;;;;6.78;3.22;;;19.90;99.90;;;;;;5048829;28;20235;-74
2023/05/19 09:00:13;;;;;;;5.03;3.45;;;19.70;99.90;;;;;;5064465;28;20195;-74
2023/05/19 09:02:40;;;;;;;7.80;3.30;;;19.30;99.90;;;;;;5043433;28;20203;-74
2023/05/19 09:05:06;;;;;;;4.68;2.50;;;19.00;99.90;;;;;;5068886;28;20276;-75
2023/05/19 09:07:34;;;;;;;3.72;2.17;;;19.20;99.90;;;;;;5062643;28;20211;-73
2023/05/19 09:10:00;;;;;;;2.53;1.90;;;19.00;99.90;;;;;;5066017;28;20214;-75
2023/05/19 09:12:27;;;;;;;3.78;1.63;;;19.20;99.90;;;;;;5043325;28;20571;-75
2023/05/19 09:14:52;;;;;;;3.60;2.35;;;19.20;99.90;;;;;;5064685;28;20539;-75
2023/05/19 09:17:18;;;;;;;3.53;2.53;;;19.20;99.90;;;;;;5062678;28;20265;-75
2023/05/19 09:19:46;;;;;;;3.65;1.55;;;19.20;99.90;;;;;;5049964;28;20634;-75
2023/05/19 09:22:14;;;;;;;3.83;2.15;;;19.10;99.90;;;;;;5067468;28;20213;-75
2023/05/19 09:24:40;;;;;;;3.45;2.92;;;18.60;99.90;;;;;;5052354;28;20223;-75
2023/05/19 09:27:07;;;;;;;2.50;2.10;;;18.30;99.90;;;;;;5069305;28;20232;-74
2023/05/19 09:29:32;;;;;;;3.10;1.35;;;18.70;99.90;;;;;;5069314;28;20199;-74
2023/05/19 09:32:03;;;;;;;2.75;1.83;;;19.00;99.90;;;;;;5068401;28;20234;-74
2023/05/19 09:34:30;;;;;;;3.75;1.60;;;19.30;99.90;;;;;;5049399;28;20214;-75
2023/05/19 09:36:56;;;;;;;2.78;1.85;;;19.20;99.90;;;;;;5066898;28;20254;-75
2023/05/19 09:39:23;;;;;;;2.95;1.50;;;19.20;99.90;;;;;;5051717;28;20179;-75
2023/05/19 09:41:54;;;;;;;4.05;1.15;;;19.20;99.90;;;;;;5045273;28;20200;-75
2023/05/19 09:44:19;;;;;;;2.90;1.40;;;18.90;99.90;;;;;;5064582;28;20307;-76
2023/05/19 09:46:52;;;;;;;2.10;1.30;;;18.90;99.90;;;;;;5063212;28;20746;-75
2023/05/19 09:49:30;;;;;;;2.00;1.38;;;19.00;99.90;;;;;;5044395;28;20217;-74
2023/05/19 09:51:55;;;;;;;1.75;1.48;;;19.00;99.90;;;;;;5062062;28;20758;-75
2023/05/19 09:54:22;;;;;;;2.75;1.50;;;18.80;99.90;;;;;;5060532;28;20183;-75
2023/05/19 09:57:07;;;;;;;3.28;1.35;;;18.80;99.90;;;;;;5061414;28;21059;-75
2023/05/19 09:59:33;;;;;;;4.22;1.52;;;19.30;99.90;;;;;;5067261;28;20259;-74
2023/05/19 10:02:00;;;;;;;4.60;2.65;;;19.60;99.90;;;;;;5062247;28;20211;-75
2023/05/19 10:04:28;;;;;;;2.38;1.70;;;19.70;99.90;;;;;;5053105;28;20218;-75
2023/05/19 10:06:58;;;;;;;3.38;1.05;;;19.60;99.90;;;;;;5064252;28;20211;-75
2023/05/19 10:09:25;;;;;;;7.07;2.65;;;19.90;99.90;;;;;;5069492;28;20175;-75
2023/05/19 10:11:53;;;;;;;5.13;2.58;;;20.10;99.90;;;;;;5063299;28;20277;-73
2023/05/19 10:14:28;;;;;;;4.80;2.40;;;20.50;99.90;;;;;;5066134;28;20199;-74
2023/05/19 10:16:57;;;;;;;3.05;1.30;;;20.10;99.90;;;;;;5045145;28;20265;-75
2023/05/19 10:19:24;;;;;;;3.15;1.40;;;19.90;99.90;;;;;;5046877;28;20207;-75
2023/05/19 10:21:51;;;;;;;4.07;1.52;;;20.00;99.90;;;;;;5064201;28;20214;-75
2023/05/19 10:24:17;;;;;;;2.72;1.20;;;19.90;99.90;;;;;;5064069;28;20179;-74
2023/05/19 10:27:06;;;;;;;1.60;1.38;;;20.00;99.90;;;;;;5068307;28;20552;-74
2023/05/19 10:29:35;;;;;;;3.97;1.30;;;19.60;99.90;;;;;;5060219;28;20213;-73
2023/05/19 10:32:08;;;;;;;4.53;1.58;;;19.80;99.90;;;;;;5062014;28;20257;-74
2023/05/19 10:34:52;;;;;;;1.58;1.30;;;19.80;99.90;;;;;;5058255;28;20212;-75
2023/05/19 10:37:54;;;;;;;1.80;1.25;;;20.00;99.90;;;;;;5069701;28;20198;-76
2023/05/19 10:40:42;;;;;;;5.28;3.50;;;20.30;99.90;;;;;;5060532;28;20615;-74
2023/05/19 10:43:39;;;;;;;2.45;1.63;;;20.10;99.90;;;;;;5045768;28;20584;-74
2023/05/19 10:46:05;;;;;;;2.40;1.48;;;19.90;99.90;;;;;;5060950;28;20622;-75
2023/05/19 10:48:35;;;;;;;2.47;1.40;;;20.30;99.90;;;;;;5067053;28;20262;-71
2023/05/19 10:51:01;;;;;;;2.97;1.30;;;20.30;99.90;;;;;;5071258;28;20198;-74
2023/05/19 10:53:33;;;;;;;2.65;1.25;;;19.90;99.90;;;;;;5064939;28;20207;-74
2023/05/19 10:56:05;;;;;;;2.00;1.58;;;19.70;99.90;;;;;;5065009;28;20316;-74
2023/05/19 10:58:49;;;;;;;5.32;4.50;;;19.80;99.90;;;;;;5045729;28;20697;-72
2023/05/19 11:01:17;;;;;;;3.17;1.65;;;19.50;99.90;;;;;;5060603;28;20206;-75
2023/05/19 11:03:51;;;;;;;3.30;1.63;;;19.50;99.90;;;;;;5060429;28;20207;-74
2023/05/19 11:06:29;;;;;;;3.42;1.50;;;19.20;99.90;;;;;;5065577;28;20312;-75
2023/05/19 11:09:04;;;;;;;4.95;3.10;;;19.30;99.90;;;;;;5052007;28;20471;-75
2023/05/19 11:11:53;;;;;;;2.08;1.88;;;19.30;99.90;;;;;;5059991;28;20218;-74
2023/05/19 11:14:27;;;;;;;3.30;1.50;;;19.40;99.90;;;;;;5060862;28;20203;-74
2023/05/19 11:16:57;;;;;;;3.08;1.58;;;19.10;99.90;;;;;;5054836;28;20201;-74
2023/05/19 11:19:34;;;;;;;3.83;1.40;;;18.80;99.90;;;;;;5072709;28;20199;-75
2023/05/19 11:22:12;;;;;;;2.65;1.38;;;19.20;99.90;;;;;;5054910;28;20719;-74
2023/05/19 11:24:52;;;;;;;4.35;1.20;;;19.10;99.90;;;;;;5053393;28;20238;-74
2023/05/19 11:27:26;;;;;;;2.92;1.42;;;19.20;99.90;;;;;;5051594;28;20226;-74
2023/05/19 11:29:54;;;;;;;2.90;1.45;;;19.20;99.90;;;;;;5050829;28;20206;-74
2023/05/19 11:32:21;;;;;;;2.55;1.25;;;19.20;99.90;;;;;;5069479;28;20203;-74
2023/05/19 11:34:48;;;;;;;2.25;1.10;;;19.00;99.90;;;;;;5066566;28;20746;-74
2023/05/19 11:37:15;;;;;;;2.10;1.50;;;18.80;99.90;;;;;;5067099;28;20199;-74
2023/05/19 11:39:40;;;;;;;1.83;1.27;;;18.80;99.90;;;;;;5050220;28;20625;-73
2023/05/19 11:42:10;;;;;;;2.85;1.30;;;19.00;99.90;;;;;;5067668;28;20290;-75
2023/05/19 11:44:37;;;;;;;2.63;0.90;;;19.20;99.90;;;;;;5063774;28;20199;-74
2023/05/19 11:47:03;;;;;;;2.80;1.17;;;19.20;99.90;;;;;;5066002;28;20203;-74
2023/05/19 11:49:29;;;;;;;4.20;1.95;;;19.30;99.90;;;;;;5064319;28;20546;-74
2023/05/19 11:51:55;;;;;;;3.35;2.20;;;19.40;99.90;;;;;;5064196;28;20314;-74
2023/05/19 11:54:20;;;;;;;6.15;1.50;;;19.60;99.90;;;;;;5053039;28;20541;-74
2023/05/19 11:56:46;;;;;;;3.47;1.50;;;19.10;99.90;;;;;;5072425;28;20266;-73
2023/05/19 11:59:12;;;;;;;2.72;1.30;;;19.20;99.90;;;;;;5051787;28;20254;-72
2023/05/19 12:01:38;;;;;;;2.28;1.30;;;19.10;99.90;;;;;;5070038;28;20215;-72
2023/05/19 12:04:09;;;;;;;5.72;3.90;;;18.90;99.90;;;;;;5069892;28;20297;-73
2023/05/19 12:06:36;;;;;;;2.45;1.58;;;18.80;99.90;;;;;;5069067;28;20226;-73
2023/05/19 12:09:04;;;;;;;2.38;2.08;;;18.80;99.90;;;;;;5048893;28;20710;-73
2023/05/19 12:11:30;;;;;;;2.30;1.20;;;18.80;99.90;;;;;;5066177;28;20215;-73
2023/05/19 12:14:00;;;;;;;3.00;1.63;;;18.80;99.90;;;;;;5065793;28;20204;-72
2023/05/19 12:16:34;;;;;;;2.38;1.40;;;18.80;99.90;;;;;;5067616;28;20214;-73
2023/05/19 12:18:59;;;;;;;3.92;1.58;;;19.00;99.90;;;;;;5066105;28;20235;-73
2023/05/19 12:21:25;;;;;;;3.28;1.48;;;19.10;99.90;;;;;;5067602;28;20245;-74
2023/05/19 12:23:51;;;;;;;2.10;1.55;;;18.80;99.90;;;;;;5063516;28;20179;-73
2023/05/19 12:26:18;;;;;;;2.20;1.40;;;18.90;99.90;;;;;;5063863;28;20236;-73
2023/05/19 12:28:44;;;;;;;2.05;1.33;;;18.90;99.90;;;;;;5043807;28;20634;-74
2023/05/19 12:31:11;;;;;;;2.60;1.48;;;19.00;99.90;;;;;;5064141;28;20219;-74
2023/05/19 12:33:36;;;;;;;3.75;1.35;;;19.00;99.90;;;;;;5071396;28;20206;-73
2023/05/19 12:36:02;;;;;;;3.40;1.10;;;19.10;99.90;;;;;;5071355;28;20187;-74
2023/05/19 12:38:27;;;;;;;5.78;1.48;;;19.10;99.90;;;;;;5052816;28;20337;-74
2023/05/19 12:43:23;;;;;;;1.80;1.17;;;18.80;99.90;;;;;;5025293;28;20215;-78
2023/05/19 12:45:49;;;;;;;4.05;1.98;;;18.90;99.90;;;;;;5012234;28;20201;-78
2023/05/19 12:48:15;;;;;;;3.50;2.33;;;19.00;99.90;;;;;;5023268;28;20177;-78
2023/05/19 12:50:42;;;;;;;3.05;1.73;;;19.00;99.90;;;;;;5029721;28;20602;-78
2023/05/19 12:53:11;;;;;;;3.30;1.50;;;19.10;99.90;;;;;;5014766;28;20224;-78
2023/05/19 12:55:41;;;;;;;2.10;1.65;;;19.00;99.90;;;;;;5033688;28;20204;-77